Wapakoneta, Ohio
Current Conditions -  °F | °C
As of 5:11 PM on Wednesday 28 Jan 2015 (Local Time) from KAXV Reporting Station
Clear Clear  
Wind Chill: 20°   Ceiling: Unl
Heat Index: 28°   Visibility: 10mi
Dew Point: 18°   Wind: 9mph
Humidity: 64%   Direction: 140°SE
Pressure: 30.25"   Gusts: NA
Location:  40.57°N, 84.19°W
Report Text: KAXV 282211Z AUTO 14008KT 10SM CLR M02/M08 A3025 RMK AO2
Loading
Personal Weather Stations






























Interactive Weather Map New forecast layout! Learn more

10-Day Weather Forecast

Advertisements
Track Severe Weather on mobile